Time;durP1;ratioP1;P1;durP2;ratioP2;P2;SDS_P1;SDS_P2;PMS_P1;PMS_P2;Temp;Humidity;BMP_temperature;BMP_pressure;BME280_temperature;BME280_humidity;BME280_pressure;Samples;Min_cycle;Max_cycle;Signal;HPM_P1;HPM_P2
2024/01/28 00:01:49;;;;;;;8.38;5.07;;;;;;;5.39;55.96;101529.19;4376917;32;20149;-73
2024/01/28 00:04:22;;;;;;;12.65;5.32;;;;;;;5.00;57.23;101533.53;4376976;32;20153;-73
2024/01/28 00:06:51;;;;;;;14.60;5.60;;;;;;;5.20;56.79;101534.87;4376600;32;20153;-73
2024/01/28 00:09:20;;;;;;;8.73;5.55;;;;;;;5.43;56.02;101535.25;4376706;32;20146;-73
2024/01/28 00:11:50;;;;;;;7.68;4.35;;;;;;;5.54;55.62;101535.88;4376732;32;20146;-73
2024/01/28 00:14:22;;;;;;;10.77;5.40;;;;;;;5.31;56.03;101539.03;4377154;32;20137;-73
2024/01/28 00:16:55;;;;;;;13.57;4.55;;;;;;;5.18;56.46;101543.66;4383776;27;20149;-73
2024/01/28 00:19:24;;;;;;;11.75;4.95;;;;;;;5.51;55.73;101535.97;4407526;32;20172;-73
2024/01/28 00:21:53;;;;;;;9.60;5.30;;;;;;;5.30;55.96;101531.16;4408868;32;20193;-73
2024/01/28 00:24:23;;;;;;;14.20;5.32;;;;;;;5.28;56.09;101538.22;4408600;32;20169;-73
2024/01/28 00:26:57;;;;;;;12.32;4.93;;;;;;;5.37;56.11;101538.87;4408717;32;20228;-73
2024/01/28 00:29:28;;;;;;;11.82;5.75;;;;;;;5.16;56.57;101534.09;4408979;32;20526;-73
2024/01/28 00:31:59;;;;;;;12.68;5.30;;;;;;;5.20;56.53;101534.87;4408849;32;20144;-73
2024/01/28 00:34:28;;;;;;;9.20;5.05;;;;;;;4.82;57.57;101539.13;4408653;32;20153;-73
2024/01/28 00:36:58;;;;;;;16.30;8.20;;;;;;;4.90;57.51;101542.47;4405283;32;20164;-73
2024/01/28 00:39:29;;;;;;;10.73;4.85;;;;;;;4.98;56.97;101539.69;4406114;32;20604;-73
2024/01/28 00:41:59;;;;;;;13.80;5.78;;;;;;;5.07;56.93;101543.03;4408708;32;20382;-73
2024/01/28 00:44:32;;;;;;;11.18;5.00;;;;;;;4.77;57.46;101541.00;4409151;32;20196;-73
2024/01/28 00:47:01;;;;;;;13.90;5.12;;;;;;;4.75;57.53;101554.16;4412420;27;20415;-73
2024/01/28 00:49:31;;;;;;;18.48;6.30;;;;;;;4.88;57.08;101555.66;4377635;32;20157;-73
2024/01/28 00:52:02;;;;;;;6.03;4.53;;;;;;;4.79;57.11;101557.56;4393605;32;20154;-73
2024/01/28 00:54:34;;;;;;;10.23;4.80;;;;;;;5.33;55.91;101558.22;4393447;32;20169;-73
2024/01/28 00:57:04;;;;;;;11.18;5.32;;;;;;;5.10;56.19;101561.31;4389707;32;20141;-73
2024/01/28 00:59:35;;;;;;;7.28;4.65;;;;;;;4.86;56.57;101552.16;4392196;32;20134;-73
2024/01/28 01:02:07;;;;;;;9.20;4.47;;;;;;;4.92;56.63;101556.47;4393405;32;20368;-73
2024/01/28 01:04:38;;;;;;;14.57;4.93;;;;;;;5.04;56.16;101563.25;4393583;32;20169;-73
2024/01/28 01:07:09;;;;;;;13.80;4.95;;;;;;;5.10;56.04;101549.97;4389308;32;20145;-73
2024/01/28 01:09:40;;;;;;;8.82;4.65;;;;;;;5.18;55.54;101558.53;4392036;32;20543;-73
2024/01/28 01:12:10;;;;;;;7.15;4.30;;;;;;;4.93;56.17;101556.41;4393623;32;20138;-73
2024/01/28 01:14:41;;;;;;;11.60;5.00;;;;;;;4.58;56.93;101548.34;4393385;32;20190;-74
2024/01/28 01:17:11;;;;;;;11.68;5.43;;;;;;;4.59;57.21;101566.72;4396887;27;20189;-73
2024/01/28 01:19:41;;;;;;;15.70;5.12;;;;;;;4.76;56.66;101566.38;4407238;32;20153;-73
2024/01/28 01:22:11;;;;;;;11.02;5.35;;;;;;;4.95;56.22;101569.53;4408326;32;20145;-73
2024/01/28 01:24:41;;;;;;;12.48;5.03;;;;;;;4.90;56.36;101572.22;4408400;32;20138;-73
2024/01/28 01:27:11;;;;;;;11.48;4.93;;;;;;;4.23;58.15;101568.19;4408267;32;20153;-73
2024/01/28 01:29:43;;;;;;;8.50;4.60;;;;;;;4.41;57.79;101567.88;4408443;32;20145;-73
2024/01/28 01:32:18;;;;;;;12.57;5.63;;;;;;;4.43;57.53;101573.09;4408057;32;20157;-73
2024/01/28 01:34:49;;;;;;;15.07;6.32;;;;;;;4.11;58.41;101571.88;4408235;32;20252;-73
2024/01/28 01:37:18;;;;;;;12.88;5.60;;;;;;;4.32;58.14;101569.81;4408239;32;20428;-73
2024/01/28 01:39:48;;;;;;;8.35;4.53;;;;;;;4.59;57.22;101565.81;4408022;32;20407;-73
2024/01/28 01:42:18;;;;;;;11.38;5.15;;;;;;;4.47;57.75;101564.28;4408364;32;20153;-73
2024/01/28 01:44:50;;;;;;;15.40;4.43;;;;;;;4.39;57.98;101561.78;4408053;32;20133;-73
2024/01/28 01:47:19;;;;;;;10.93;5.35;;;;;;;4.27;58.29;101556.75;4410234;27;20149;-73
2024/01/28 01:49:49;;;;;;;9.55;5.85;;;;;;;4.29;58.15;101565.47;4393024;32;20138;-73
2024/01/28 01:52:20;;;;;;;10.82;4.93;;;;;;;4.47;57.71;101568.66;4392825;32;20141;-73
2024/01/28 01:54:52;;;;;;;10.35;5.20;;;;;;;4.46;57.77;101577.44;4392910;32;20299;-73
2024/01/28 01:57:21;;;;;;;11.15;5.07;;;;;;;4.18;58.62;101568.25;4392853;32;20209;-73
2024/01/28 01:59:53;;;;;;;12.90;5.22;;;;;;;4.33;58.31;101561.91;4392699;32;20428;-73
2024/01/28 02:02:27;;;;;;;14.20;4.78;;;;;;;3.95;59.43;101565.13;4393244;32;20146;-73
2024/01/28 02:04:57;;;;;;;13.48;5.07;;;;;;;4.45;58.08;101560.81;4393044;32;20196;-73
2024/01/28 02:07:27;;;;;;;13.68;4.65;;;;;;;4.28;58.48;101565.50;4387028;32;20162;-73
2024/01/28 02:10:03;;;;;;;9.60;4.95;;;;;;;4.09;59.09;101571.03;4392874;32;20170;-73
2024/01/28 02:12:32;;;;;;;8.02;5.12;;;;;;;4.09;58.94;101565.78;4392950;32;20149;-73
2024/01/28 02:15:09;;;;;;;14.65;5.12;;;;;;;3.89;59.68;101554.75;4392999;32;20145;-73
2024/01/28 02:17:44;;;;;;;11.12;6.90;;;;;;;3.81;59.61;101562.72;4403859;27;20187;-73
2024/01/28 02:20:14;;;;;;;11.25;4.32;;;;;;;3.97;59.56;101568.59;4408719;32;20491;-73
2024/01/28 02:22:43;;;;;;;11.45;5.40;;;;;;;3.96;59.56;101577.38;4408098;32;20496;-73
2024/01/28 02:25:21;;;;;;;9.90;5.18;;;;;;;3.69;60.25;101576.00;4407754;32;20141;-73
2024/01/28 02:27:51;;;;;;;13.30;5.05;;;;;;;4.07;59.12;101588.53;4401676;32;20169;-73
2024/01/28 02:30:20;;;;;;;13.13;5.90;;;;;;;3.84;59.64;101582.78;4407852;32;20176;-73
2024/01/28 02:32:52;;;;;;;13.32;5.72;;;;;;;4.04;59.21;101586.00;4407678;32;20168;-73
2024/01/28 02:35:22;;;;;;;8.50;4.97;;;;;;;3.84;60.02;101588.03;4408135;32;20145;-73
2024/01/28 02:37:51;;;;;;;12.13;5.15;;;;;;;3.93;59.64;101593.16;4407547;32;20415;-73
2024/01/28 02:40:22;;;;;;;10.77;5.22;;;;;;;3.61;60.48;101593.59;4407699;32;20420;-73
2024/01/28 02:42:52;;;;;;;11.60;5.43;;;;;;;4.13;59.04;101591.09;4407624;32;20169;-73
2024/01/28 02:45:27;;;;;;;11.68;5.57;;;;;;;3.78;60.14;101598.59;4407525;32;20152;-73
2024/01/28 02:47:57;;;;;;;14.57;5.60;;;;;;;3.77;60.26;101610.00;4412304;27;20214;-73
2024/01/28 02:50:26;;;;;;;11.30;5.07;;;;;;;4.19;58.68;101604.09;4392708;32;20157;-73
2024/01/28 02:52:55;;;;;;;10.98;4.78;;;;;;;4.13;58.98;101609.44;4392689;32;20165;-73
2024/01/28 02:55:26;;;;;;;15.40;5.03;;;;;;;4.32;58.10;101607.41;4392696;32;20141;-73
2024/01/28 02:57:56;;;;;;;12.32;5.12;;;;;;;4.10;58.85;101601.62;4392258;32;20146;-73
2024/01/28 03:00:25;;;;;;;9.43;5.03;;;;;;;4.16;58.74;101604.16;4375919;32;20166;-73
2024/01/28 03:02:54;;;;;;;9.48;4.78;;;;;;;4.29;58.43;101606.59;4386268;32;20145;-73
2024/01/28 03:05:23;;;;;;;9.95;5.07;;;;;;;4.17;58.58;101612.91;4392681;32;20148;-73
2024/01/28 03:07:53;;;;;;;9.25;4.40;;;;;;;4.19;58.70;101601.47;4282890;32;3604301;-73
2024/01/28 03:10:22;;;;;;;9.10;5.32;;;;;;;3.93;59.47;101608.88;4392374;32;20145;-73
2024/01/28 03:12:53;;;;;;;12.75;4.97;;;;;;;4.19;58.79;101596.22;4392177;32;20156;-73
2024/01/28 03:15:23;;;;;;;9.27;4.47;;;;;;;4.27;58.47;101600.47;4392233;32;20145;-73
2024/01/28 03:17:52;;;;;;;12.68;5.03;;;;;;;4.11;58.97;101599.84;4403299;27;20172;-73
2024/01/28 03:20:21;;;;;;;8.23;4.53;;;;;;;3.91;59.27;101595.78;4407577;32;20149;-73
2024/01/28 03:22:49;;;;;;;10.57;4.60;;;;;;;3.93;59.32;101594.00;4407236;32;20389;-73
2024/01/28 03:25:19;;;;;;;11.60;4.57;;;;;;;3.96;59.09;101590.50;4407086;32;20157;-73
2024/01/28 03:27:48;;;;;;;12.63;4.87;;;;;;;4.17;58.45;101605.88;4407212;32;20137;-73
2024/01/28 03:30:19;;;;;;;10.75;4.50;;;;;;;4.22;58.06;101607.56;4407158;32;20177;-73
2024/01/28 03:32:52;;;;;;;7.87;5.07;;;;;;;4.19;57.94;101611.97;4406908;32;20149;-73
2024/01/28 03:35:24;;;;;;;14.18;4.12;;;;;;;4.19;57.73;101609.34;4407432;32;20371;-73
2024/01/28 03:37:53;;;;;;;9.90;4.27;;;;;;;4.39;57.66;101613.41;4407102;32;20410;-73
2024/01/28 03:40:23;;;;;;;11.68;4.43;;;;;;;4.52;57.26;101606.22;4406885;32;20537;-73
2024/01/28 03:42:53;;;;;;;6.40;4.75;;;;;;;4.15;58.22;101626.00;4407061;32;20482;-73
2024/01/28 03:45:25;;;;;;;12.25;5.05;;;;;;;4.07;58.61;101627.03;4406665;32;20157;-73
2024/01/28 03:47:56;;;;;;;14.45;5.62;;;;;;;4.16;58.24;101617.28;4399855;27;20173;-73
2024/01/28 03:50:28;;;;;;;8.50;4.55;;;;;;;4.07;58.49;101619.16;4392079;32;20144;-73
2024/01/28 03:52:57;;;;;;;12.50;4.75;;;;;;;3.78;59.39;101625.69;4391792;32;20145;-73
2024/01/28 03:55:26;;;;;;;9.30;4.18;;;;;;;4.01;58.97;101633.25;4393139;32;20476;-73
2024/01/28 03:57:56;;;;;;;11.15;4.85;;;;;;;4.23;58.13;101614.53;4393560;32;20161;-73
2024/01/28 04:00:29;;;;;;;13.40;5.97;;;;;;;4.13;58.41;101624.31;4393565;32;20145;-73
2024/01/28 04:03:05;;;;;;;14.23;6.57;;;;;;;4.04;58.82;101630.59;4387818;32;20161;-73
2024/01/28 04:05:36;;;;;;;12.65;8.63;;;;;;;4.28;58.21;101628.47;4393814;32;20157;-73
2024/01/28 04:08:09;;;;;;;14.23;6.37;;;;;;;3.98;59.00;101635.91;4393510;32;20165;-73
2024/01/28 04:10:39;;;;;;;15.18;7.68;;;;;;;4.12;58.30;101631.34;4378712;32;20173;-73
2024/01/28 04:13:09;;;;;;;11.95;6.50;;;;;;;4.25;57.94;101632.00;4393815;32;20578;-73
2024/01/28 04:15:39;;;;;;;18.65;5.70;;;;;;;4.26;57.86;101632.88;4393345;32;20157;-73
2024/01/28 04:18:09;;;;;;;9.97;5.37;;;;;;;4.58;57.08;101627.09;4406059;27;20176;-73
2024/01/28 04:20:39;;;;;;;5.60;4.28;;;;;;;4.44;57.41;101632.59;4408414;32;20498;-73
2024/01/28 04:23:08;;;;;;;13.95;5.25;;;;;;;4.21;57.75;101629.47;4408967;32;20482;-73
2024/01/28 04:25:38;;;;;;;6.75;3.95;;;;;;;4.12;58.09;101640.97;4408801;32;20148;-73
2024/01/28 04:28:07;;;;;;;11.00;4.72;;;;;;;4.07;58.29;101642.75;4408487;32;20149;-73
2024/01/28 04:30:41;;;;;;;8.38;5.28;;;;;;;3.98;58.46;101643.78;4408731;32;20416;-73
2024/01/28 04:33:14;;;;;;;12.37;6.30;;;;;;;4.35;57.74;101651.09;4408509;32;20490;-73
2024/01/28 04:35:44;;;;;;;10.70;5.30;;;;;;;4.30;57.74;101661.66;4408687;32;20153;-74
2024/01/28 04:38:14;;;;;;;12.80;5.65;;;;;;;4.37;57.44;101651.94;4409013;32;20161;-73
2024/01/28 04:40:44;;;;;;;13.50;5.60;;;;;;;3.90;59.19;101661.38;4408549;32;20418;-73
2024/01/28 04:43:14;;;;;;;13.27;5.85;;;;;;;4.03;58.66;101669.94;4408384;32;20161;-73
2024/01/28 04:45:45;;;;;;;10.52;5.37;;;;;;;4.28;58.05;101671.31;4408847;32;20140;-73
2024/01/28 04:48:14;;;;;;;12.13;4.78;;;;;;;4.17;58.55;101668.84;4405581;27;20129;-73
2024/01/28 04:50:46;;;;;;;10.82;5.32;;;;;;;4.54;57.40;101676.16;4393426;32;20149;-73
2024/01/28 04:53:15;;;;;;;10.45;5.60;;;;;;;4.32;57.99;101680.03;4377408;32;20134;-73
2024/01/28 04:55:47;;;;;;;10.98;5.78;;;;;;;4.16;58.28;101679.38;4392254;32;20261;-73
2024/01/28 04:58:17;;;;;;;11.52;5.53;;;;;;;3.97;59.02;101680.53;4392989;32;20142;-73
2024/01/28 05:00:48;;;;;;;14.30;6.28;;;;;;;4.00;59.14;101691.84;4393073;32;20487;-73
2024/01/28 05:03:21;;;;;;;11.43;5.82;;;;;;;4.48;57.48;101686.78;4392999;32;20154;-73
2024/01/28 05:05:52;;;;;;;9.77;6.87;;;;;;;3.51;59.72;101694.19;4392202;32;20148;-74
2024/01/28 05:08:25;;;;;;;17.70;6.85;;;;;;;3.54;60.40;101696.78;4393363;32;20471;-73
2024/01/28 05:10:55;;;;;;;18.27;7.62;;;;;;;2.70;63.26;101707.19;4393137;32;20165;-73
2024/01/28 05:13:24;;;;;;;21.65;10.88;;;;;;;2.67;64.14;101707.22;4393135;32;20165;-73
2024/01/28 05:15:54;;;;;;;15.23;10.25;;;;;;;2.54;64.71;101721.28;4392990;32;20487;-73
2024/01/28 05:18:23;;;;;;;19.45;7.55;;;;;;;2.58;64.46;101709.91;4407009;27;20205;-73
2024/01/28 05:20:53;;;;;;;16.37;8.05;;;;;;;2.91;63.62;101710.50;4407949;32;20176;-74
2024/01/28 05:23:23;;;;;;;12.50;6.37;;;;;;;3.24;62.90;101705.84;4408297;32;20141;-73
2024/01/28 05:25:54;;;;;;;16.55;8.20;;;;;;;3.36;62.55;101698.72;4407997;32;20148;-73
2024/01/28 05:28:23;;;;;;;14.80;6.97;;;;;;;3.17;62.90;101703.28;4408009;32;20141;-73
2024/01/28 05:30:56;;;;;;;11.95;7.10;;;;;;;3.53;62.33;101698.53;4408168;32;20169;-73
2024/01/28 05:33:25;;;;;;;14.70;6.55;;;;;;;3.44;62.41;101703.88;4407957;32;20141;-73
2024/01/28 05:36:11;;;;;;;15.45;7.07;;;;;;;3.32;62.99;101709.25;4408285;32;20141;-74
2024/01/28 05:38:41;;;;;;;15.55;7.40;;;;;;;3.16;63.74;101709.38;4408172;32;20129;-74
2024/01/28 05:41:20;;;;;;;12.68;6.43;;;;;;;3.28;63.20;101713.62;4408219;32;20144;-74
2024/01/28 05:43:50;;;;;;;11.10;6.00;;;;;;;3.35;63.23;101711.84;4407897;32;20149;-73
2024/01/28 05:46:20;;;;;;;12.32;6.35;;;;;;;3.44;63.36;101723.09;4407994;32;20187;-73
2024/01/28 05:48:54;;;;;;;18.55;8.57;;;;;;;3.65;62.60;101722.00;4401891;27;20422;-74
2024/01/28 05:51:25;;;;;;;14.98;6.78;;;;;;;3.31;63.97;101718.00;4393015;32;20141;-74
2024/01/28 05:53:56;;;;;;;14.63;6.20;;;;;;;3.33;63.90;101726.72;4392681;32;20145;-74
2024/01/28 05:56:28;;;;;;;18.15;7.70;;;;;;;3.45;63.74;101721.34;4376797;32;20503;-74
2024/01/28 05:58:57;;;;;;;12.25;6.82;;;;;;;3.47;63.43;101723.94;4386879;32;20146;-73
2024/01/28 06:01:28;;;;;;;75.62;43.33;;;;;;;3.48;63.41;101723.91;4392405;32;20184;-74
2024/01/28 06:03:57;;;;;;;46.92;32.90;;;;;;;3.78;62.42;101721.84;4392719;32;20161;-74
2024/01/28 06:06:27;;;;;;;16.58;9.30;;;;;;;3.69;62.68;101723.69;4392808;32;20479;-74
2024/01/28 06:08:56;;;;;;;15.52;7.65;;;;;;;3.77;62.47;101727.97;4386747;32;20284;-74
2024/01/28 06:11:25;;;;;;;13.50;8.50;;;;;;;3.66;62.48;101739.44;4392868;32;20413;-74
2024/01/28 06:13:54;;;;;;;13.88;7.82;;;;;;;3.28;64.00;101733.72;4392473;32;20295;-74
2024/01/28 06:16:24;;;;;;;14.15;6.78;;;;;;;3.47;63.58;101747.53;4392067;32;20144;-74
2024/01/28 06:18:56;;;;;;;13.75;7.07;;;;;;;3.47;63.73;101750.16;4415289;27;20157;-74
2024/01/28 06:21:27;;;;;;;;;;;;;;;3.30;64.49;101760.81;4407925;32;20144;-74
2024/01/28 06:24:00;;;;;;;9.93;7.07;;;;;;;3.57;63.62;101746.56;4407547;32;20075;-74
2024/01/28 06:26:31;;;;;;;14.15;7.03;;;;;;;3.88;62.62;101747.03;4408096;32;20171;-74
2024/01/28 06:29:00;;;;;;;11.32;6.00;;;;;;;3.60;63.46;101755.25;4407471;32;20153;-74
2024/01/28 06:31:30;;;;;;;16.87;8.63;;;;;;;3.32;64.54;101764.25;4407676;32;20162;-74
2024/01/28 06:34:00;;;;;;;13.15;8.23;;;;;;;3.31;64.60;101773.00;4407504;32;20164;-74
2024/01/28 06:36:30;;;;;;;10.70;7.12;;;;;;;3.39;64.69;101773.81;4407439;32;20152;-74
2024/01/28 06:38:59;;;;;;;16.98;7.80;;;;;;;3.43;64.60;101778.12;4407591;32;20173;-74
2024/01/28 06:41:28;;;;;;;14.45;7.05;;;;;;;3.59;64.14;101763.97;4407705;32;20145;-74
2024/01/28 06:43:58;;;;;;;13.95;6.97;;;;;;;3.89;63.23;101772.41;4407571;32;20161;-74
2024/01/28 06:46:27;;;;;;;16.87;6.53;;;;;;;3.62;64.01;101765.72;4407263;32;20148;-74
2024/01/28 06:49:03;;;;;;;14.10;6.60;;;;;;;3.86;63.41;101769.81;4401205;27;20225;-74
2024/01/28 06:51:33;;;;;;;12.90;7.68;;;;;;;3.78;64.00;101771.66;4392338;32;20141;-74
2024/01/28 06:54:04;;;;;;;16.42;7.93;;;;;;;3.63;64.47;101776.16;4392150;32;20140;-74
2024/01/28 06:56:34;;;;;;;11.18;8.75;;;;;;;3.89;63.84;101782.91;4392573;32;20173;-74
2024/01/28 06:59:03;;;;;;;13.38;7.57;;;;;;;3.77;64.20;101783.03;4392107;32;20141;-74
2024/01/28 07:01:32;;;;;;;10.52;6.72;;;;;;;3.87;64.27;101788.12;4380153;32;20150;-74
2024/01/28 07:04:06;;;;;;;10.02;8.45;;;;;;;4.31;62.93;101780.59;4377079;32;20137;-74
2024/01/28 07:06:35;;;;;;;13.40;7.05;;;;;;;4.82;61.49;101786.88;4377020;32;20165;-74
2024/01/28 07:09:04;;;;;;;14.75;6.20;;;;;;;5.45;59.18;101785.81;4377073;32;20149;-74
2024/01/28 07:11:34;;;;;;;16.42;7.75;;;;;;;5.50;58.91;101775.22;4363905;32;20512;-74
2024/01/28 07:14:03;;;;;;;14.90;7.62;;;;;;;5.63;58.23;101776.75;4376673;32;20221;-74
2024/01/28 07:16:34;;;;;;;15.57;7.55;;;;;;;5.37;58.92;101783.34;4376897;32;20248;-74
2024/01/28 07:19:07;;;;;;;15.23;7.47;;;;;;;5.56;58.56;101778.63;4381659;27;20153;-74
2024/01/28 07:21:37;;;;;;;10.85;6.72;;;;;;;5.52;58.60;101786.59;4389125;32;20156;-74
2024/01/28 07:24:08;;;;;;;9.85;7.20;;;;;;;5.47;58.62;101784.06;4406676;32;20151;-74
2024/01/28 07:26:38;;;;;;;10.27;6.60;;;;;;;5.78;58.09;101780.81;4406671;32;20188;-74
2024/01/28 07:29:07;;;;;;;13.70;6.45;;;;;;;5.66;58.42;101788.09;4406353;32;20161;-73
2024/01/28 07:31:37;;;;;;;14.00;7.70;;;;;;;6.01;57.55;101791.78;4406893;32;20152;-74
2024/01/28 07:34:17;;;;;;;14.10;7.10;;;;;;;6.12;57.34;101797.72;4406862;32;20129;-74
2024/01/28 07:36:47;;;;;;;13.02;6.80;;;;;;;6.11;56.88;101795.13;4406664;32;20198;-74
2024/01/28 07:39:16;;;;;;;14.85;7.45;;;;;;;6.16;56.80;101804.66;4406883;32;20420;-74
2024/01/28 07:41:46;;;;;;;8.98;6.22;;;;;;;5.84;57.87;101801.78;4406922;32;20152;-73
2024/01/28 07:44:15;;;;;;;13.07;7.50;;;;;;;5.89;57.91;101795.50;4408515;32;20141;-73
2024/01/28 07:46:45;;;;;;;15.90;8.10;;;;;;;6.04;57.57;101796.16;4422098;32;20145;-74
2024/01/28 07:49:16;;;;;;;18.48;7.65;;;;;;;6.01;57.67;101798.81;4400894;27;20153;-73
2024/01/28 07:51:46;;;;;;;16.27;7.75;;;;;;;5.84;57.74;101793.88;4391955;32;20145;-73
2024/01/28 07:54:15;;;;;;;12.65;7.45;;;;;;;6.15;57.39;101796.78;4391865;32;20398;-73
2024/01/28 07:56:44;;;;;;;12.65;7.25;;;;;;;6.30;57.20;101795.63;4391730;32;20195;-73
2024/01/28 07:59:14;;;;;;;15.35;7.43;;;;;;;6.42;56.78;101805.88;4392213;32;20511;-73
2024/01/28 08:01:43;;;;;;;11.55;7.40;;;;;;;6.69;56.03;101808.78;4392077;32;20169;-73
2024/01/28 08:04:23;;;;;;;11.75;8.77;;;;;;;6.85;55.44;101804.88;4391812;32;20145;-73
2024/01/28 08:06:53;;;;;;;16.77;6.85;;;;;;;7.24;54.59;101805.69;4391822;32;20137;-73
2024/01/28 08:09:22;;;;;;;16.00;6.85;;;;;;;7.67;53.63;101798.44;4391568;32;20471;-73
2024/01/28 08:11:51;;;;;;;11.60;7.40;;;;;;;7.99;52.59;101801.06;4391336;32;20394;-73
2024/01/28 08:14:26;;;;;;;11.98;6.07;;;;;;;8.12;52.00;101801.59;4391475;32;20145;-73
2024/01/28 08:17:00;;;;;;;191.18;122.05;;;;;;;8.37;51.42;101797.34;4391254;32;20177;-74
2024/01/28 08:19:31;;;;;;;27.23;20.40;;;;;;;9.72;52.24;101790.31;4425522;27;20191;-74
2024/01/28 08:22:02;;;;;;;14.43;7.15;;;;;;;10.44;48.27;101795.59;4421686;32;20406;-73
2024/01/28 08:24:34;;;;;;;9.88;5.47;;;;;;;10.58;45.78;101800.38;4421359;32;20132;-74
2024/01/28 08:27:03;;;;;;;10.80;5.45;;;;;;;11.08;44.78;101801.00;4421328;32;20140;-73
2024/01/28 08:29:33;;;;;;;15.10;7.20;;;;;;;11.65;43.15;101798.63;4421829;32;20148;-73
2024/01/28 08:32:03;;;;;;;15.38;8.00;;;;;;;11.88;42.59;101805.63;4421466;32;20264;-73
2024/01/28 08:34:38;;;;;;;11.57;5.62;;;;;;;12.21;41.54;101807.69;4421788;32;20145;-73
2024/01/28 08:37:09;;;;;;;14.98;5.35;;;;;;;12.57;40.68;101802.44;4421598;32;20411;-73
2024/01/28 08:39:38;;;;;;;12.40;5.53;;;;;;;12.76;40.47;101807.75;4421861;32;20140;-74
2024/01/28 08:42:07;;;;;;;11.45;6.93;;;;;;;13.13;39.53;101803.28;4409902;32;20502;-74
2024/01/28 08:44:37;;;;;;;10.77;5.78;;;;;;;13.15;39.13;101807.59;4423697;32;20137;-74
2024/01/28 08:47:06;;;;;;;8.85;5.55;;;;;;;13.59;38.72;101806.34;4424319;32;20284;-73
2024/01/28 08:49:44;;;;;;;9.77;5.12;;;;;;;13.83;38.15;101798.88;4398403;27;20641;-74
2024/01/28 08:52:13;;;;;;;13.50;5.20;;;;;;;13.71;38.09;101793.22;4393073;32;20141;-73
2024/01/28 08:54:45;;;;;;;8.77;5.82;;;;;;;13.84;37.94;101811.25;4393049;32;20154;-74
2024/01/28 08:57:15;;;;;;;12.50;7.00;;;;;;;14.16;37.34;101829.03;4393045;32;20475;-73
2024/01/28 08:59:44;;;;;;;11.50;4.87;;;;;;;13.83;37.78;101821.03;4393089;32;20412;-73
2024/01/28 09:02:13;;;;;;;12.65;6.05;;;;;;;13.49;38.49;101830.75;4394024;32;20169;-73
2024/01/28 09:04:46;;;;;;;13.23;5.43;;;;;;;13.66;38.28;101831.69;4393618;32;20165;-73
2024/01/28 09:07:16;;;;;;;12.52;5.93;;;;;;;13.83;37.98;101838.84;4393387;32;20149;-73
2024/01/28 09:09:45;;;;;;;14.02;5.82;;;;;;;13.69;38.30;101832.41;4393624;32;20162;-73
2024/01/28 09:12:14;;;;;;;11.88;6.25;;;;;;;13.40;38.82;101841.88;4393422;32;20157;-73
2024/01/28 09:14:43;;;;;;;10.30;6.68;;;;;;;13.74;38.35;101849.03;4379622;32;20149;-74
2024/01/28 09:17:14;;;;;;;11.88;6.50;;;;;;;13.34;39.15;101857.28;4398651;27;20137;31
2024/01/28 09:19:49;;;;;;;11.68;6.47;;;;;;;13.66;38.50;101853.87;4346111;33;20154;-73
2024/01/28 09:22:18;;;;;;;15.93;6.75;;;;;;;13.67;38.65;101858.25;4347843;33;20150;-73
2024/01/28 09:24:47;;;;;;;10.38;5.60;;;;;;;13.52;38.81;101859.91;4347922;33;20142;-73
2024/01/28 09:27:17;;;;;;;12.90;6.57;;;;;;;13.41;38.81;101856.91;4348200;33;20127;-73
2024/01/28 09:29:48;;;;;;;8.82;5.80;;;;;;;13.25;39.29;101864.78;4348063;33;20150;-74
2024/01/28 09:32:19;;;;;;;19.10;6.87;;;;;;;12.99;39.78;101855.41;4348232;33;20409;-73
2024/01/28 09:34:52;;;;;;;10.02;5.53;;;;;;;12.70;40.50;101866.53;4347814;33;20172;-73
2024/01/28 09:37:21;;;;;;;10.45;6.45;;;;;;;12.42;41.12;101867.81;4347668;33;20489;-73
2024/01/28 09:39:51;;;;;;;9.40;5.62;;;;;;;12.31;41.23;101872.75;4347759;33;20158;-73
2024/01/28 09:42:24;;;;;;;11.38;6.35;;;;;;;12.91;40.76;101878.84;4347817;33;20142;-73
2024/01/28 09:44:53;;;;;;;7.60;5.50;;;;;;;13.33;39.90;101875.06;4347633;33;20151;-73
2024/01/28 09:47:24;;;;;;;12.90;6.43;;;;;;;13.69;39.13;101875.00;4354186;27;20409;-74
2024/01/28 09:49:59;;;;;;;12.27;6.40;;;;;;;13.51;39.14;101870.63;4347134;33;20471;-73
2024/01/28 09:52:29;;;;;;;10.68;5.75;;;;;;;13.80;38.80;101862.97;4347013;33;20174;-73
2024/01/28 09:54:58;;;;;;;9.65;4.95;;;;;;;14.21;38.06;101864.34;4347684;33;20170;-73
2024/01/28 09:57:29;;;;;;;10.18;5.35;;;;;;;14.36;37.61;101870.63;4347625;33;20134;-74
2024/01/28 09:59:59;;;;;;;8.90;4.82;;;;;;;14.70;37.06;101872.38;4347835;33;20161;-74
2024/01/28 10:02:30;;;;;;;12.23;5.25;;;;;;;14.92;36.58;101872.00;4348323;33;20143;-73
2024/01/28 10:05:00;;;;;;;10.52;5.18;;;;;;;15.27;35.65;101873.63;4347900;33;20155;-73
2024/01/28 10:07:40;;;;;;;8.77;4.55;;;;;;;15.02;35.86;101871.53;4348066;32;20134;-73
2024/01/28 10:10:12;;;;;;;8.00;5.62;;;;;;;15.18;35.62;101870.56;4347933;33;20149;-73
2024/01/28 10:12:41;;;;;;;11.07;5.10;;;;;;;15.09;35.70;101863.06;4348032;33;20151;-74
2024/01/28 10:15:18;;;;;;;12.13;5.07;;;;;;;14.94;36.46;101862.12;4347862;33;20428;-73
2024/01/28 10:17:49;;;;;;;12.63;6.07;;;;;;;15.04;36.46;101866.94;4359485;27;20174;-74
2024/01/28 10:20:23;;;;;;;9.75;5.90;;;;;;;15.38;35.91;101864.06;4378031;32;20153;-73
2024/01/28 10:22:52;;;;;;;;;;;;;;;15.13;36.18;101874.44;4377827;32;20150;-74
2024/01/28 10:25:26;;;;;;;10.57;4.80;;;;;;;15.16;36.14;101866.22;4377507;32;20021;-74
2024/01/28 10:27:55;;;;;;;11.60;5.47;;;;;;;14.80;36.39;101856.69;4377639;32;20403;-74
2024/01/28 10:30:25;;;;;;;11.38;4.78;;;;;;;15.06;36.53;101859.72;4377557;32;20146;-74
2024/01/28 10:32:54;;;;;;;14.87;5.62;;;;;;;14.85;36.73;101849.31;4377508;32;20153;-74
2024/01/28 10:35:25;;;;;;;7.97;5.15;;;;;;;15.33;36.19;101850.13;4378124;32;20174;-74
2024/01/28 10:37:59;;;;;;;10.05;4.87;;;;;;;15.37;35.68;101843.66;4377653;32;20141;-74
2024/01/28 10:40:32;;;;;;;6.32;5.03;;;;;;;15.70;35.58;101840.81;4377705;32;20166;-74
2024/01/28 10:43:03;;;;;;;9.98;5.60;;;;;;;15.94;35.23;101829.59;4377740;32;20442;-74
2024/01/28 10:45:34;;;;;;;10.43;5.32;;;;;;;15.49;35.90;101834.06;4377626;32;20154;-74
2024/01/28 10:48:12;;;;;;;14.32;6.05;;;;;;;16.10;34.86;101825.03;4382355;27;20141;-74
2024/01/28 10:50:43;;;;;;;8.88;4.47;;;;;;;15.85;34.98;101814.97;4377586;32;20197;-74
2024/01/28 10:53:14;;;;;;;9.00;5.47;;;;;;;15.83;35.22;101814.19;4377721;32;20133;-73
2024/01/28 10:55:45;;;;;;;7.78;5.30;;;;;;;15.94;34.52;101811.72;4377472;32;20138;-74
2024/01/28 10:58:16;;;;;;;9.82;5.53;;;;;;;15.70;35.77;101810.56;4377226;32;20385;-74
2024/01/28 11:00:46;;;;;;;9.32;4.87;;;;;;;16.03;35.37;101812.13;4377563;32;20166;-74
2024/01/28 11:03:16;;;;;;;11.63;5.00;;;;;;;16.04;35.03;101803.16;4376324;32;20174;-74
2024/01/28 11:05:47;;;;;;;11.35;4.90;;;;;;;16.07;35.22;101801.12;4377293;32;20125;-74
2024/01/28 11:08:17;;;;;;;8.73;4.75;;;;;;;16.18;34.79;101803.16;4377920;32;20145;-74
2024/01/28 11:10:48;;;;;;;9.82;5.30;;;;;;;15.71;35.07;101807.78;4377632;32;20186;-74
2024/01/28 11:13:18;;;;;;;11.52;6.50;;;;;;;15.90;35.03;101818.22;4377616;32;20125;-74
2024/01/28 11:15:47;;;;;;;70.75;40.00;;;;;;;15.74;35.30;101818.28;4363794;32;20149;-74
2024/01/28 11:18:16;;;;;;;66.65;44.40;;;;;;;15.26;35.94;101816.69;4394537;27;20169;-74
2024/01/28 11:20:47;;;;;;;17.75;11.18;;;;;;;15.11;36.05;101822.94;4392333;32;20181;-74
2024/01/28 11:23:17;;;;;;;7.40;4.85;;;;;;;15.22;36.33;101816.00;4392453;32;20141;-74
2024/01/28 11:25:48;;;;;;;7.82;5.47;;;;;;;15.52;36.42;101815.19;4392135;32;20176;-73
2024/01/28 11:28:17;;;;;;;7.80;4.47;;;;;;;15.52;35.30;101809.84;4392440;32;20157;-74
2024/01/28 11:30:52;;;;;;;9.43;5.40;;;;;;;15.45;35.74;101811.16;4392253;32;20153;-74
2024/01/28 11:33:22;;;;;;;13.57;9.27;;;;;;;15.81;35.45;101805.44;4392458;32;20149;-73
2024/01/28 11:35:53;;;;;;;10.27;5.15;;;;;;;15.11;36.20;101806.91;4392247;32;20148;-74
2024/01/28 11:38:27;;;;;;;8.48;5.82;;;;;;;15.54;35.54;101805.25;4392577;32;20189;-74
2024/01/28 11:40:57;;;;;;;7.25;4.85;;;;;;;15.21;36.23;101808.09;4392159;32;20169;-74